Latest Coastal Weather Observations for Melbourne (Olympic Park)

IDV60701

Issued at 4:01 am EST Saturday 28 May 2016 (issued every 10 minutes, with the page automatically refreshed every 10 minutes)

About coastal observations | Map of coastal stations | Coastal observations for VIC | Marine services | Other Formats
Station Details ID: 086338 Name: MELBOURNE (OLYMPIC PARK) Lat: -37.83 Lon: 144.98 Height: 7.53 m
Data from the previous 72 hours. | See also: Recent months at Melbourne (Olympic Park)
Date/Time
EST
Temp

°C
Wind Pressure Rain
since 9am
mm
Weather Cloud Vis
km
Sea
Height
m
Swell
Dir
 
Speed
knots
Gust
knots
hPa Trend Height
m
Period
s
Dir
28/04:00am 6.9 NNE 3 6 1008.6 - 0.0 - - 54 - - - -
28/03:30am 7.2 NNE 1 5 1008.4 - 0.0 - - - - - - -
28/03:00am 7.2 NNW 3 5 1008.5 - 0.0 - - - - - - -
28/02:30am 7.8 NNE 4 5 1008.4 - 0.0 - - - - - - -
28/02:00am 8.3 N 4 5 1008.3 - 0.0 - - - - - - -
28/01:30am 8.7 NNE 3 4 1008.3 - 0.0 - - - - - - -
28/01:00am 8.7 NNE 3 5 1008.3 - 0.0 - - - - - - -
28/12:30am 8.7 NNE 5 8 1008.4 - 0.0 - - - - - - -
28/12:00am 8.6 NNE 4 6 1008.5 - 0.0 - - - - - - -
 
Date/Time
EST
Temp

°C
Wind Pressure Rain
since 9am
mm
Weather Cloud Vis
km
Sea
Height
m
Swell
Dir
 
Speed
knots
Gust
knots
hPa Trend Height
m
Period
s
Dir
27/11:30pm 8.7 NNE 4 6 1008.5 - 0.0 - - - - - - -
27/11:00pm 8.8 N 4 5 1008.3 - 0.0 - - - - - - -
27/10:30pm 8.7 NNE 4 5 1008.2 - 0.0 - - - - - - -
27/10:00pm 8.4 NNE 4 6 1008.2 - 0.0 - - - - - - -
27/09:30pm 7.5 CALM 0 0 1008.1 - 0.0 - - - - - - -
27/09:00pm 7.8 CALM 0 0 1008.0 - 0.0 - - - - - - -
27/08:30pm 8.0 CALM 0 0 1007.8 - 0.0 - - - - - - -
27/08:00pm 8.2 CALM 0 0 1007.7 - 0.0 - - - - - - -
27/07:30pm 8.3 CALM 0 0 1007.7 - 0.0 - - - - - - -
27/07:00pm 8.6 CALM 0 0 1007.5 - 0.0 - - - - - - -
27/06:30pm 8.7 CALM 0 0 1007.3 - 0.0 - - - - - - -
27/06:00pm 9.1 CALM 0 0 1007.1 - 0.0 - - - - - - -
27/05:30pm 9.8 CALM 0 0 1006.9 - 0.0 - - - - - - -
27/05:00pm 11.2 CALM 0 0 1006.9 - 0.0 - - - - - - -
27/04:30pm 13.6 CALM 0 0 1006.8 - 0.0 - - - - - - -
27/04:00pm 13.6 CALM 0 0 1006.8 - 0.0 - - - - - - -
27/03:30pm 13.5 SSW 3 6 1006.7 - 0.0 - - - - - - -
27/03:00pm 13.3 S 3 5 1006.7 - 0.0 - - - - - - -
27/02:45pm 13.6 SW 4 7 1007.5 - 0.0 - - - - - - -
27/02:30pm 13.9 SSW 5 8 1006.6 - 0.0 - - - - - - -
27/02:00pm 13.2 SSW 3 6 1006.7 - 0.0 - - - - - - -
27/01:30pm 13.5 SW 5 9 1006.9 - 0.0 - - - - - - -
27/01:00pm 13.3 SW 3 6 1007.0 - 0.0 - - - - - - -
27/12:30pm 13.4 W 6 11 1007.2 - 0.0 - - - - - - -
27/12:00pm 13.1 WSW 5 10 1007.4 - 0.0 - - - - - - -
27/11:30am 13.9 WNW 6 11 1007.8 - 0.0 - - - - - - -
27/11:00am 12.6 WNW 5 11 1008.1 - 0.0 - - - - - - -
27/10:30am 12.5 WNW 6 9 1008.2 - 0.0 - - - - - - -
27/10:00am 11.7 WNW 6 10 1008.1 - 0.0 - - - - - - -
27/09:30am 10.8 NW 6 13 1008.2 - 0.0 - - - - - - -
27/09:00am 10.2 WNW 6 11 1007.9 - 4.8 - - - - - - -
27/08:30am 9.9 WNW 7 11 1007.9 - 4.8 - - - - - - -
27/08:00am 9.7 WNW 6 13 1007.7 - 4.8 - - - - - - -
27/07:30am 9.3 W 6 11 1007.6 - 4.8 - - - - - - -
27/07:00am 9.4 WNW 5 9 1007.4 - 4.8 - - - - - - -
27/06:30am 9.5 WNW 5 10 1007.3 - 4.8 - - - - - - -
27/06:00am 9.5 W 5 9 1007.2 - 4.8 - - - - - - -
27/05:30am 9.4 W 5 9 1007.2 - 4.8 - - - - - - -
27/05:00am 9.2 WNW 5 8 1007.3 - 4.8 - - - - - - -
27/04:30am 9.3 WNW 7 12 1007.2 - 4.8 - - - - - - -
27/04:00am 9.6 W 5 8 1006.9 - 4.8 - - - - - - -
27/03:30am 9.5 W 6 9 1006.9 - 4.8 - - - - - - -
27/03:00am 9.3 WNW 5 9 1007.1 - 4.8 - - - - - - -
27/02:30am 9.4 WNW 6 11 1007.1 - 4.8 - - - - - - -
27/02:00am 9.5 WNW 5 10 1007.1 - 4.8 - - - - - - -
27/01:30am 9.6 WNW 5 9 1007.0 - 4.8 - - - - - - -
27/01:00am 9.5 WNW 5 9 1007.0 - 4.8 - - - - - - -
27/12:30am 9.8 WNW 7 12 1007.1 - 4.8 - - - - - - -
27/12:00am 9.8 W 4 8 1007.2 - 4.8 - - - - - - -
 
Date/Time
EST
Temp

°C
Wind Pressure Rain
since 9am
mm
Weather Cloud Vis
km
Sea
Height
m
Swell
Dir
 
Speed
knots
Gust
knots
hPa Trend Height
m
Period
s
Dir
26/11:30pm 9.9 W 6 10 1007.1 - 4.8 - - - - - - -
26/11:00pm 10.0 W 6 11 1007.1 - 4.8 - - - - - - -
26/10:30pm 10.0 WNW 5 9 1007.1 - 4.8 - - - - - - -
26/10:00pm 10.1 W 5 13 1007.2 - 4.8 - - - - - - -
26/09:30pm 10.3 W 4 8 1007.1 - 4.8 - - - - - - -
26/09:00pm 10.6 W 5 8 1006.9 - 4.8 - - - - - - -
26/08:30pm 10.8 W 5 9 1006.7 - 4.8 - - - - - - -
26/08:00pm 10.9 W 5 9 1006.4 - 4.8 - - - - - - -
26/07:30pm 11.2 W 4 8 1006.2 - 4.8 - - - - - - -
26/07:00pm 11.2 W 4 7 1006.0 - 4.8 - - - - - - -
26/06:30pm 11.1 W 4 8 1005.7 - 4.8 - - - - - - -
26/06:00pm 11.1 W 5 9 1005.3 - 4.8 Rain - - - - - -
26/05:30pm 11.1 W 4 7 1004.8 - 4.8 - - - - - - -
26/05:17pm 11.0 W 2 6 1005.6 - 4.8 - - 10 - - - -
26/05:00pm 10.7 SSW 5 11 1004.7 - 4.6 - - - - - - -
26/04:45pm 11.4 WSW 5 11 1005.5 - 2.6 - - 7 - - - -
26/04:30pm 11.6 W 6 11 1004.3 - 2.4 - - - - - - -
26/04:00pm 12.0 W 5 9 1003.9 - 2.4 - - - - - - -
26/03:30pm 12.1 W 6 10 1003.7 - 2.4 - - - - - - -
26/03:00pm 11.9 W 5 9 1003.5 - 2.4 Rain - - - - - -
26/02:30pm 11.9 W 5 8 1003.2 - 2.2 - - - - - - -
26/02:00pm 11.9 W 5 11 1003.1 - 2.0 - - - - - - -
26/01:30pm 12.5 SW 5 10 1003.0 - 1.6 - - - - - - -
26/01:00pm 12.2 WSW 6 10 1002.9 - 1.6 - - - - - - -
26/12:51pm 11.9 SW 5 9 1003.8 - 1.6 - - 10 - - - -
26/12:30pm 11.5 SSW 7 14 1002.9 - 1.4 - - - - - - -
26/12:29pm 11.5 SSW 7 14 1003.8 - 1.4 - - 7 - - - -
26/12:17pm 11.6 SSW 6 13 1003.9 - 1.4 - - 10 - - - -
26/12:00pm 11.6 SW 6 11 1003.0 - 1.4 Drizzle - - - - - -
26/11:58am 11.7 SW 6 12 1003.9 - 1.4 - - 7 - - - -
26/11:34am 11.3 W 5 10 1004.1 - 1.2 - - 10 - - - -
26/11:30am 11.3 WNW 6 10 1003.2 - 1.2 - - - - - - -
26/11:03am 11.5 WNW 4 7 1004.2 - 1.2 - - 7 - - - -
26/11:00am 11.5 WNW 4 7 1003.3 - 1.0 - - - - - - -
26/10:30am 11.4 NW 6 9 1003.4 - 0.6 - - - - - - -
26/10:00am 11.0 N 6 7 1003.4 - 0.6 - - - - - - -
26/09:50am 10.8 N 6 8 1004.3 - 0.6 - - 10 - - - -
26/09:30am 10.8 N 6 9 1003.5 - 0.4 - - - - - - -
26/09:07am 10.5 N 7 11 1004.5 - 0.0 - - 7 - - - -
26/09:00am 10.5 N 6 8 1003.6 - 12.4 Rain - - - - - -
26/08:49am 10.5 N 7 11 1004.5 - 12.0 - - 10 - - - -
26/08:30am 10.4 N 7 10 1003.5 - 11.8 - - - - - - -
26/08:00am 10.3 N 7 11 1003.6 - 10.6 - - - - - - -
26/07:30am 10.6 N 6 10 1003.5 - 9.8 - - - - - - -
26/07:00am 10.4 N 6 8 1003.6 - 9.6 - - - - - - -
26/06:38am 10.8 N 9 15 1004.5 - 9.4 - - 7 - - - -
26/06:30am 11.0 N 9 14 1003.7 - 9.4 - - - - - - -
26/06:00am 11.1 N 8 13 1003.9 - 9.4 Recent precip. - - - - - -
26/05:30am 11.0 N 7 13 1004.0 - 9.4 - - - - - - -
26/05:23am 10.8 N 7 11 1004.9 - 9.4 - - 10 - - - -
26/05:02am 11.0 N 8 15 1005.2 - 9.2 - - 7 - - - -
26/05:00am 11.0 N 8 15 1004.2 - 9.2 - - - - - - -
26/04:30am 10.9 N 10 15 1004.2 - 9.2 - - - - - - -
26/04:00am 11.0 N 10 16 1004.5 - 9.2 - - - - - - -
26/03:30am 11.3 N 11 19 1004.9 - 9.2 - - - - - - -
26/03:00am 11.2 N 9 17 1005.2 - 9.2 Rain - - - - - -
26/02:30am 11.2 N 10 16 1005.5 - 9.2 - - - - - - -
26/02:00am 11.5 N 10 15 1005.9 - 9.2 - - - - - - -
26/01:30am 11.4 N 9 15 1006.3 - 9.0 - - - - - - -
26/01:00am 11.4 N 11 19 1006.6 - 9.0 - - - - - - -
26/12:30am 11.1 N 10 17 1006.8 - 9.0 - - - - - - -
26/12:00am 10.9 N 9 13 1007.4 - 8.8 Rain - - - - - -
 
Date/Time
EST
Temp

°C
Wind Pressure Rain
since 9am
mm
Weather Cloud Vis
km
Sea
Height
m
Swell
Dir
 
Speed
knots
Gust
knots
hPa Trend Height
m
Period
s
Dir
25/11:38pm 10.9 N 10 15 1008.4 - 8.8 - - 10 - - - -
25/11:30pm 10.9 N 10 17 1007.9 - 8.4 - - - - - - -
25/11:18pm 10.8 N 10 16 1009.0 - 7.6 - - 7 - - - -
25/11:00pm 11.0 N 10 16 1008.3 - 6.4 - - - - - - -
25/10:30pm 11.4 N 10 16 1008.3 - 5.2 - - - - - - -
25/10:00pm 11.6 N 11 18 1008.4 - 5.0 - - - - - - -
25/09:30pm 11.9 N 13 22 1008.5 - 4.6 - - - - - - -
25/09:25pm 12.0 N 13 22 1009.5 - 4.6 - - 10 - - - -
25/09:09pm 11.7 N 12 21 1009.7 - 4.4 - - 7 - - - -
25/09:00pm 11.9 N 11 16 1008.7 - 4.2 Rain - - - - - -
25/08:33pm 11.9 N 10 17 1009.5 - 3.4 - - 9 - - - -
25/08:30pm 11.9 N 9 14 1008.6 - 3.2 - - - - - - -
25/08:21pm 12.0 N 10 16 1009.6 - 2.8 - - 7 - - - -
25/08:00pm 12.3 N 12 18 1009.0 - 2.2 - - - - - - -
25/07:30pm 12.6 N 11 19 1009.4 - 2.0 - - - - - - -
25/07:00pm 13.2 N 11 22 1009.4 - 1.8 - - - - - - -
25/06:30pm 13.2 N 11 17 1009.0 - 1.8 - - - - - - -
25/06:00pm 13.4 N 9 19 1009.4 - 1.8 Showers - - - - - -
25/05:30pm 13.6 N 12 19 1008.9 - 1.8 - - - - - - -
25/05:00pm 13.8 N 14 25 1009.3 - 1.8 - - - - - - -
25/04:30pm 13.7 N 12 19 1009.4 - 1.8 - - - - - - -
25/04:00pm 13.5 N 8 13 1009.7 - 1.6 - - - - - - -
25/03:30pm 13.4 N 9 13 1009.9 - 1.0 - - - - - - -
25/03:00pm 13.4 N 8 13 1010.2 - 0.6 Rain - - - - - -
25/02:30pm 13.4 N 10 16 1010.5 - 0.0 - - - - - - -
25/02:00pm 14.4 N 13 19 1010.5 - 0.0 - - - - - - -
25/01:30pm 15.2 N 12 21 1010.4 - 0.0 - - - - - - -
25/01:00pm 14.9 N 11 19 1011.4 - 0.0 - - - - - - -
25/12:30pm 15.5 N 11 19 1011.9 - 0.0 - - - - - - -
25/12:00pm 15.0 N 10 18 1012.1 - 0.0 - - - - - - -
25/11:30am 14.9 N 11 19 1012.9 - 0.0 - - - - - - -
25/11:00am 13.7 N 11 20 1013.8 - 0.0 - - - - - - -
25/10:30am 13.2 NNE 10 16 1014.4 - 0.0 - - - - - - -
25/10:00am 12.8 N 10 17 1014.6 - 0.0 - - - - - - -
25/09:30am 12.6 N 9 14 1015.0 - 0.0 - - - - - - -
25/09:00am 12.2 N 8 13 1015.1 - 0.0 - - - - - - -
25/08:30am 11.9 N 10 17 1015.2 - 0.0 - - - - - - -
25/08:00am 11.7 N 9 12 1015.1 - 0.0 - - - - - - -
25/07:30am 10.6 N 6 8 1015.4 - 0.0 - - - - - - -
25/07:00am 9.3 NNE 6 8 1015.5 - 0.0 - - - - - - -
25/06:30am 9.1 NNE 6 9 1015.6 - 0.0 - - - - - - -
25/06:00am 8.5 NNE 6 8 1015.3 - 0.0 - - - - - - -
25/05:30am 8.1 NNE 7 10 1015.6 - 0.0 - - - - - - -
25/05:00am 8.1 N 5 8 1015.8 - 0.0 - - - - - - -
25/04:30am 7.8 NNE 7 8 1015.8 - 0.0 - - - - - - -

Other Formats:

Comma delimited format used in spreadsheet applications
http://www.bom.gov.au/fwo/IDV60701/IDV60701.95936.axf

JavaScript Object Notation format (JSON) in row-major order
http://www.bom.gov.au/fwo/IDV60701/IDV60701.95936.json